Time;durP1;ratioP1;P1;durP2;ratioP2;P2;SDS_P1;SDS_P2;PMS_P1;PMS_P2;Temp;Humidity;BMP_temperature;BMP_pressure;BME280_temperature;BME280_humidity;BME280_pressure;Samples;Min_cycle;Max_cycle;Signal;HPM_P1;HPM_P2
2022/11/19 00:01:28;;;;;;;19.86;15.28;;;;;;;;;;5238987;28;20495;-73
2022/11/19 00:04:00;;;;;;;22.42;17.08;;;;;;;;;;5239283;28;20388;-73
2022/11/19 00:06:31;;;;;;;22.17;16.77;;;;;;;;;;5239713;28;20018;-73
2022/11/19 00:09:04;;;;;;;22.63;17.45;;;;;;;;;;5238202;28;20052;-73
2022/11/19 00:14:25;;;;;;;22.90;16.27;;;;;;;;;;5239364;28;20472;-73
2022/11/19 00:16:56;;;;;;;23.20;17.13;;;;;;;;;;5239009;28;20025;-74
2022/11/19 00:19:27;;;;;;;23.25;16.88;;;;;;;;;;5239674;28;20029;-74
2022/11/19 00:21:58;;;;;;;24.48;18.85;;;;;;;;;;5238378;28;20052;-74
2022/11/19 00:24:29;;;;;;;24.85;16.55;;;;;;;;;;5239694;28;20464;-74
2022/11/19 00:27:01;;;;;;;22.63;17.55;;;;;;;;;;5239192;28;20496;-75
2022/11/19 00:29:32;;;;;;;20.75;16.52;;;;;;;;;;5238909;28;20026;-74
2022/11/19 00:32:03;;;;;;;22.78;16.20;;;;;;;;;;5238868;28;20061;-74
2022/11/19 00:34:34;;;;;;;24.95;17.52;;;;;;;;;;5239597;28;20071;-74
2022/11/19 00:37:06;;;;;;;22.50;17.05;;;;;;;;;;5238353;28;20522;-75
2022/11/19 00:39:37;;;;;;;23.80;16.15;;;;;;;;;;5242567;28;20043;-74
2022/11/19 00:42:08;;;;;;;23.88;16.52;;;;;;;;;;5242010;28;20029;-74
2022/11/19 00:44:39;;;;;;;21.60;16.32;;;;;;;;;;5243539;28;20048;-75
2022/11/19 00:47:10;;;;;;;24.58;16.92;;;;;;;;;;5242609;28;20013;-74
2022/11/19 00:49:42;;;;;;;20.15;14.77;;;;;;;;;;5242601;28;20484;-75
2022/11/19 00:52:13;;;;;;;25.83;17.52;;;;;;;;;;5242689;28;20108;-74
2022/11/19 00:54:44;;;;;;;23.95;18.17;;;;;;;;;;5242798;28;20096;-74
2022/11/19 00:57:15;;;;;;;20.85;15.90;;;;;;;;;;5241856;28;20025;-74
2022/11/19 00:59:46;;;;;;;23.58;17.50;;;;;;;;;;5242656;28;20366;-74
2022/11/19 01:02:17;;;;;;;21.58;15.88;;;;;;;;;;5242635;28;20040;-75
2022/11/19 01:04:49;;;;;;;22.55;15.43;;;;;;;;;;5241461;28;20017;-75
2022/11/19 01:07:20;;;;;;;22.98;16.66;;;;;;;;;;5242793;28;20105;-74
2022/11/19 01:09:51;;;;;;;23.90;16.90;;;;;;;;;;5242010;28;20025;-75
2022/11/19 01:12:22;;;;;;;20.48;16.17;;;;;;;;;;5241734;28;20029;-74
2022/11/19 01:14:53;;;;;;;27.52;17.80;;;;;;;;;;5241998;28;20471;-74
2022/11/19 01:17:24;;;;;;;21.44;15.46;;;;;;;;;;5241721;28;20882;-75
2022/11/19 01:19:56;;;;;;;23.83;18.25;;;;;;;;;;5241857;28;20372;-75
2022/11/19 01:22:27;;;;;;;25.35;17.80;;;;;;;;;;5242581;28;20373;-76
2022/11/19 01:24:58;;;;;;;24.40;17.52;;;;;;;;;;5242078;28;20025;-75
2022/11/19 01:27:30;;;;;;;27.50;19.26;;;;;;;;;;5243049;28;20017;-75
2022/11/19 01:30:01;;;;;;;21.98;17.20;;;;;;;;;;5242478;28;20021;-76
2022/11/19 01:32:32;;;;;;;24.77;17.90;;;;;;;;;;5241466;28;20073;-75
2022/11/19 01:35:04;;;;;;;25.16;18.12;;;;;;;;;;5241797;28;20075;-76
2022/11/19 01:37:35;;;;;;;23.33;17.90;;;;;;;;;;5241764;28;20052;-76
2022/11/19 01:40:06;;;;;;;26.56;18.70;;;;;;;;;;5241014;28;20021;-75
2022/11/19 01:42:49;;;;;;;27.40;18.85;;;;;;;;;;5241687;28;20068;-75
2022/11/19 01:45:37;;;;;;;23.35;19.00;;;;;;;;;;5240859;28;20017;-75
2022/11/19 01:48:14;;;;;;;23.30;16.95;;;;;;;;;;5241365;28;20017;-75
2022/11/19 01:50:51;;;;;;;24.77;17.60;;;;;;;;;;5241461;28;20029;-76
2022/11/19 01:53:25;;;;;;;24.27;17.45;;;;;;;;;;5240937;28;20544;-76
2022/11/19 01:56:02;;;;;;;22.48;16.90;;;;;;;;;;5241457;28;20075;-76
2022/11/19 01:58:35;;;;;;;26.10;18.75;;;;;;;;;;5241543;28;20033;-75
2022/11/19 02:01:08;;;;;;;24.45;19.17;;;;;;;;;;5240405;28;20095;-76
2022/11/19 02:03:39;;;;;;;23.75;18.67;;;;;;;;;;5241257;28;20116;-75
2022/11/19 02:06:10;;;;;;;22.20;17.65;;;;;;;;;;5241458;28;20109;-76
2022/11/19 02:08:43;;;;;;;23.70;18.58;;;;;;;;;;5240511;28;20041;-75
2022/11/19 02:11:36;;;;;;;21.73;17.17;;;;;;;;;;5241167;28;20029;-76
2022/11/19 02:14:07;;;;;;;21.38;17.70;;;;;;;;;;5240272;28;20029;-76
2022/11/19 02:16:42;;;;;;;20.70;16.73;;;;;;;;;;5241033;28;20032;-75
2022/11/19 02:19:33;;;;;;;22.55;17.88;;;;;;;;;;5240864;28;20108;-75
2022/11/19 02:22:23;;;;;;;19.50;16.65;;;;;;;;;;5240015;28;20061;-75
2022/11/19 02:25:00;;;;;;;24.25;18.75;;;;;;;;;;5240888;28;20029;-75
2022/11/19 02:27:49;;;;;;;21.10;16.60;;;;;;;;;;5240265;28;20068;-75
2022/11/19 02:30:21;;;;;;;19.73;14.90;;;;;;;;;;5240381;28;20029;-75
2022/11/19 02:32:57;;;;;;;20.00;15.63;;;;;;;;;;5240932;28;20021;-75
2022/11/19 02:35:42;;;;;;;17.70;13.98;;;;;;;;;;5240028;28;20056;-75
2022/11/19 02:38:17;;;;;;;18.20;13.57;;;;;;;;;;5240415;28;20018;-75
2022/11/19 02:40:54;;;;;;;18.60;13.90;;;;;;;;;;5240261;28;20017;-75
2022/11/19 02:43:35;;;;;;;17.40;12.75;;;;;;;;;;5239756;28;20013;-74
2022/11/19 02:46:12;;;;;;;16.45;13.57;;;;;;;;;;5240488;28;20057;-75
2022/11/19 02:48:48;;;;;;;14.50;12.82;;;;;;;;;;5239596;28;20025;-75
2022/11/19 02:51:19;;;;;;;17.83;12.20;;;;;;;;;;5240478;28;20032;-75
2022/11/19 02:53:51;;;;;;;13.68;11.20;;;;;;;;;;5240111;28;20097;-74
2022/11/19 02:56:41;;;;;;;14.93;12.10;;;;;;;;;;5239534;28;20353;-75
2022/11/19 03:04:55;;;;;;;14.23;10.35;;;;;;;;;;5239666;28;20033;-75
2022/11/19 03:07:27;;;;;;;13.40;11.13;;;;;;;;;;5240224;28;20357;-76
2022/11/19 03:09:59;;;;;;;12.82;10.10;;;;;;;;;;5240088;28;20468;-75
2022/11/19 03:12:30;;;;;;;10.55;9.45;;;;;;;;;;5240693;28;20017;-75
2022/11/19 03:18:01;;;;;;;11.85;9.98;;;;;;;;;;5240014;28;20260;-76
2022/11/19 03:20:38;;;;;;;12.90;11.02;;;;;;;;;;5240281;28;20017;-75
2022/11/19 03:23:24;;;;;;;12.40;10.80;;;;;;;;;;5239926;28;20100;-76
2022/11/19 03:25:58;;;;;;;12.55;10.35;;;;;;;;;;5239030;28;20472;-74
2022/11/19 03:28:32;;;;;;;11.35;10.25;;;;;;;;;;5239640;28;20127;-75
2022/11/19 03:31:04;;;;;;;12.23;10.65;;;;;;;;;;5238817;28;20058;-75
2022/11/19 03:33:39;;;;;;;13.73;10.32;;;;;;;;;;5239878;28;20021;-76
2022/11/19 03:36:12;;;;;;;12.75;11.38;;;;;;;;;;5239904;28;20026;-75
2022/11/19 03:38:46;;;;;;;12.60;11.27;;;;;;;;;;5238657;28;20025;-75
2022/11/19 03:41:19;;;;;;;17.17;12.70;;;;;;;;;;5239838;28;20028;-76
2022/11/19 03:43:52;;;;;;;13.27;11.50;;;;;;;;;;5239202;28;20025;-76
2022/11/19 03:46:24;;;;;;;16.45;11.85;;;;;;;;;;5238721;28;20025;-76
2022/11/19 03:48:55;;;;;;;14.65;11.60;;;;;;;;;;5239558;28;20376;-75
2022/11/19 03:51:40;;;;;;;14.65;11.70;;;;;;;;;;5239527;28;20036;-76
2022/11/19 03:54:11;;;;;;;12.25;10.57;;;;;;;;;;5239128;28;20115;-76
2022/11/19 03:56:43;;;;;;;12.85;11.35;;;;;;;;;;5239320;28;20498;-75
2022/11/19 03:59:15;;;;;;;13.80;11.93;;;;;;;;;;5239072;28;20056;-76
2022/11/19 04:01:46;;;;;;;14.88;12.43;;;;;;;;;;5239150;28;20532;-76
2022/11/19 04:04:36;;;;;;;15.85;12.88;;;;;;;;;;5239705;28;20165;-75
2022/11/19 04:07:10;;;;;;;15.55;11.95;;;;;;;;;;5238591;28;20021;-75
2022/11/19 04:09:41;;;;;;;16.35;12.82;;;;;;;;;;5239164;28;20048;-76
2022/11/19 04:12:17;;;;;;;17.95;13.27;;;;;;;;;;5239563;28;20038;-75
2022/11/19 04:14:49;;;;;;;17.17;14.30;;;;;;;;;;5241502;28;20461;-75
2022/11/19 04:17:20;;;;;;;16.70;12.75;;;;;;;;;;5243472;28;20013;-75
2022/11/19 04:19:51;;;;;;;14.60;12.95;;;;;;;;;;5243276;28;20040;-75
2022/11/19 04:22:22;;;;;;;17.50;14.34;;;;;;;;;;5242508;28;20022;-75
2022/11/19 04:24:54;;;;;;;19.95;15.23;;;;;;;;;;5243083;28;20017;-75
2022/11/19 04:27:25;;;;;;;18.98;14.82;;;;;;;;;;5242663;28;20460;-75
2022/11/19 04:29:56;;;;;;;18.66;15.84;;;;;;;;;;5243276;28;20021;-75
2022/11/19 04:32:27;;;;;;;19.70;15.88;;;;;;;;;;5242797;28;20045;-75
2022/11/19 04:34:58;;;;;;;19.38;16.40;;;;;;;;;;5242091;28;20053;-75
2022/11/19 04:37:29;;;;;;;20.98;17.00;;;;;;;;;;5242943;28;20491;-75
2022/11/19 04:40:01;;;;;;;21.25;16.38;;;;;;;;;;5242871;28;20423;-75
2022/11/19 04:42:32;;;;;;;19.88;16.05;;;;;;;;;;5242298;28;20376;-75
2022/11/19 04:45:03;;;;;;;20.00;16.40;;;;;;;;;;5242778;28;20112;-75
2022/11/19 04:47:34;;;;;;;21.48;16.60;;;;;;;;;;5242810;28;20369;-75
2022/11/19 04:50:06;;;;;;;20.92;16.50;;;;;;;;;;5241936;28;20030;-76
2022/11/19 04:52:37;;;;;;;19.83;16.52;;;;;;;;;;5242857;28;20063;-75
2022/11/19 04:55:09;;;;;;;22.06;16.44;;;;;;;;;;5241998;28;20027;-76
2022/11/19 04:57:40;;;;;;;21.67;17.08;;;;;;;;;;5242420;28;20495;-77
2022/11/19 05:00:12;;;;;;;22.55;18.33;;;;;;;;;;5242835;28;20025;-76
2022/11/19 05:02:44;;;;;;;20.98;17.42;;;;;;;;;;5241494;28;20017;-76
2022/11/19 05:05:15;;;;;;;22.50;17.63;;;;;;;;;;5243077;28;20024;-76
2022/11/19 05:07:46;;;;;;;23.17;16.52;;;;;;;;;;5242219;28;20087;-76
2022/11/19 05:10:17;;;;;;;21.88;16.86;;;;;;;;;;5242062;28;20108;-75
2022/11/19 05:12:49;;;;;;;23.15;17.88;;;;;;;;;;5241896;28;20031;-76
2022/11/19 05:15:20;;;;;;;22.27;18.02;;;;;;;;;;5242942;28;20044;-76
2022/11/19 05:17:51;;;;;;;22.73;17.73;;;;;;;;;;5241657;28;20053;-76
2022/11/19 05:20:22;;;;;;;22.80;18.67;;;;;;;;;;5242292;28;20037;-76
2022/11/19 05:22:53;;;;;;;22.52;18.74;;;;;;;;;;5242035;28;20017;-76
2022/11/19 05:25:24;;;;;;;20.70;17.02;;;;;;;;;;5240933;28;20479;-76
2022/11/19 05:27:56;;;;;;;21.60;18.00;;;;;;;;;;5242185;28;20096;-76
2022/11/19 05:30:27;;;;;;;22.75;18.05;;;;;;;;;;5241027;28;20041;-76
2022/11/19 05:32:58;;;;;;;22.23;17.10;;;;;;;;;;5242088;28;20439;-76
2022/11/19 05:35:30;;;;;;;22.63;18.08;;;;;;;;;;5242096;28;20032;-76
2022/11/19 05:38:01;;;;;;;21.98;17.58;;;;;;;;;;5241110;28;20017;-76
2022/11/19 05:40:32;;;;;;;22.45;18.27;;;;;;;;;;5241872;28;20028;-76
2022/11/19 05:43:04;;;;;;;24.44;19.06;;;;;;;;;;5241706;28;20485;-76
2022/11/19 05:45:35;;;;;;;22.20;18.88;;;;;;;;;;5241113;28;20457;-76
2022/11/19 05:48:06;;;;;;;21.20;17.30;;;;;;;;;;5241681;28;20071;-76
2022/11/19 05:50:39;;;;;;;21.52;19.15;;;;;;;;;;5241693;28;20025;-76
2022/11/19 05:53:10;;;;;;;22.75;19.05;;;;;;;;;;5241289;28;20480;-75
2022/11/19 05:55:42;;;;;;;21.75;17.90;;;;;;;;;;5241222;28;20021;-76
2022/11/19 05:58:13;;;;;;;21.52;18.80;;;;;;;;;;5241883;28;20488;-76
2022/11/19 06:00:44;;;;;;;22.75;19.25;;;;;;;;;;5240259;28;20029;-76
2022/11/19 06:03:15;;;;;;;20.98;17.33;;;;;;;;;;5241587;28;20231;-76
2022/11/19 06:05:46;;;;;;;23.38;19.90;;;;;;;;;;5240219;28;20640;-77
2022/11/19 06:08:17;;;;;;;24.46;19.54;;;;;;;;;;5241636;28;20376;-76
2022/11/19 06:10:49;;;;;;;24.25;20.17;;;;;;;;;;5240909;28;20379;-76
2022/11/19 06:13:20;;;;;;;24.42;20.08;;;;;;;;;;5240382;28;20048;-76
2022/11/19 06:15:51;;;;;;;22.27;19.33;;;;;;;;;;5241040;28;20025;-75
2022/11/19 06:18:22;;;;;;;24.48;20.60;;;;;;;;;;5241215;28;20366;-75
2022/11/19 06:20:53;;;;;;;24.24;21.00;;;;;;;;;;5240699;28;20329;-74
2022/11/19 06:23:25;;;;;;;24.02;19.92;;;;;;;;;;5241040;28;20472;-75
2022/11/19 06:25:56;;;;;;;24.52;19.88;;;;;;;;;;5241014;28;20029;-76
2022/11/19 06:28:27;;;;;;;25.90;20.65;;;;;;;;;;5240410;28;20100;-75
2022/11/19 06:30:58;;;;;;;24.30;20.60;;;;;;;;;;5240797;28;20049;-75
2022/11/19 06:33:29;;;;;;;23.84;19.60;;;;;;;;;;5240901;28;20029;-75
2022/11/19 06:36:00;;;;;;;24.40;21.54;;;;;;;;;;5239432;28;20071;-75
2022/11/19 06:38:32;;;;;;;24.83;21.40;;;;;;;;;;5240649;28;20018;-75
2022/11/19 06:41:03;;;;;;;25.08;21.02;;;;;;;;;;5239914;28;20022;-74
2022/11/19 06:43:34;;;;;;;27.52;22.33;;;;;;;;;;5240854;28;20024;-75
2022/11/19 06:46:05;;;;;;;25.45;21.38;;;;;;;;;;5240673;28;20014;-75
2022/11/19 06:48:36;;;;;;;31.08;24.08;;;;;;;;;;5239885;28;20116;-74
2022/11/19 06:51:08;;;;;;;29.17;23.48;;;;;;;;;;5240533;28;20433;-75
2022/11/19 06:53:39;;;;;;;30.15;24.83;;;;;;;;;;5240384;28;20333;-75
2022/11/19 06:56:10;;;;;;;29.13;23.75;;;;;;;;;;5240151;28;20068;-74
2022/11/19 06:58:41;;;;;;;29.50;24.10;;;;;;;;;;5240065;28;20057;-75
2022/11/19 07:01:14;;;;;;;32.54;25.12;;;;;;;;;;5240616;28;20422;-75
2022/11/19 07:03:45;;;;;;;34.15;25.75;;;;;;;;;;5239375;28;20407;-75
2022/11/19 07:06:16;;;;;;;30.80;25.20;;;;;;;;;;5240670;28;20037;-75
2022/11/19 07:08:47;;;;;;;30.70;25.83;;;;;;;;;;5239385;28;20096;-75
2022/11/19 07:11:24;;;;;;;32.32;25.24;;;;;;;;;;5240395;28;20079;-74
2022/11/19 07:13:56;;;;;;;33.17;24.75;;;;;;;;;;5240019;28;20018;-75
2022/11/19 07:16:29;;;;;;;31.73;24.67;;;;;;;;;;5239758;28;20026;-75
2022/11/19 07:19:02;;;;;;;33.95;26.20;;;;;;;;;;5240225;28;20028;-74
2022/11/19 07:21:33;;;;;;;33.75;26.02;;;;;;;;;;5240186;28;20025;-74
2022/11/19 07:24:06;;;;;;;35.38;28.00;;;;;;;;;;5239251;28;20079;-75
2022/11/19 07:26:37;;;;;;;36.45;26.90;;;;;;;;;;5240358;28;20024;-74
2022/11/19 07:29:10;;;;;;;34.38;26.30;;;;;;;;;;5240022;28;20014;-75
2022/11/19 07:31:41;;;;;;;34.60;26.33;;;;;;;;;;5238817;28;20092;-75
2022/11/19 07:34:12;;;;;;;35.17;25.67;;;;;;;;;;5240220;28;20049;-74
2022/11/19 07:36:44;;;;;;;34.58;25.05;;;;;;;;;;5239568;28;20025;-74
2022/11/19 07:39:15;;;;;;;31.20;24.70;;;;;;;;;;5239647;28;20076;-75
2022/11/19 07:44:37;;;;;;;34.40;25.15;;;;;;;;;;5239114;28;20013;-75
2022/11/19 07:47:08;;;;;;;36.58;26.72;;;;;;;;;;5240301;28;20460;-75
2022/11/19 07:49:39;;;;;;;38.13;26.77;;;;;;;;;;5243702;28;20399;-75
2022/11/19 07:52:10;;;;;;;38.22;26.38;;;;;;;;;;5243655;28;20496;-76
2022/11/19 07:54:42;;;;;;;38.90;27.33;;;;;;;;;;5243737;28;20018;-76
2022/11/19 07:57:13;;;;;;;35.70;26.73;;;;;;;;;;5244305;28;20029;-75
2022/11/19 07:59:44;;;;;;;34.82;26.06;;;;;;;;;;5242841;28;20021;-75
2022/11/19 08:02:15;;;;;;;35.14;25.60;;;;;;;;;;5244287;28;20108;-75
2022/11/19 08:04:46;;;;;;;34.28;24.05;;;;;;;;;;5243599;28;20018;-75
2022/11/19 08:07:17;;;;;;;37.66;26.12;;;;;;;;;;5243362;28;20068;-76
2022/11/19 08:09:49;;;;;;;34.13;26.20;;;;;;;;;;5243454;28;20024;-76
2022/11/19 08:12:20;;;;;;;34.40;25.88;;;;;;;;;;5243013;28;20037;-76
2022/11/19 08:14:51;;;;;;;33.78;25.27;;;;;;;;;;5243832;28;20021;-76
2022/11/19 08:20:12;;;;;;;34.83;25.55;;;;;;;;;;5242912;28;20100;-74
2022/11/19 08:22:43;;;;;;;36.63;25.13;;;;;;;;;;5243018;28;20093;-75
2022/11/19 08:25:14;;;;;;;32.54;24.08;;;;;;;;;;5244014;28;20080;-75
2022/11/19 08:27:45;;;;;;;34.42;24.30;;;;;;;;;;5242430;28;20024;-75
2022/11/19 08:30:17;;;;;;;34.78;24.74;;;;;;;;;;5243653;28;20032;-75
2022/11/19 08:32:48;;;;;;;31.92;24.48;;;;;;;;;;5242856;28;20080;-75
2022/11/19 08:35:19;;;;;;;33.08;23.60;;;;;;;;;;5242887;28;20124;-75
2022/11/19 08:37:51;;;;;;;33.28;24.17;;;;;;;;;;5243173;28;20080;-76
2022/11/19 08:40:23;;;;;;;30.75;23.10;;;;;;;;;;5242569;28;20030;-75
2022/11/19 08:43:00;;;;;;;35.42;26.23;;;;;;;;;;5243131;28;20029;-75
2022/11/19 08:45:35;;;;;;;35.00;24.50;;;;;;;;;;5243115;28;20461;-76
2022/11/19 08:48:09;;;;;;;32.58;24.10;;;;;;;;;;5242019;28;20132;-75
2022/11/19 08:50:40;;;;;;;33.67;24.45;;;;;;;;;;5242582;28;20072;-76
2022/11/19 08:53:11;;;;;;;30.83;24.13;;;;;;;;;;5243205;28;20026;-76
2022/11/19 08:55:42;;;;;;;32.35;23.40;;;;;;;;;;5241668;28;20060;-76
2022/11/19 08:58:14;;;;;;;35.10;25.95;;;;;;;;;;5243365;28;20017;-75
2022/11/19 09:00:45;;;;;;;30.85;23.98;;;;;;;;;;5241871;28;20032;-76
2022/11/19 09:03:16;;;;;;;33.55;25.25;;;;;;;;;;5242063;28;20026;-76
2022/11/19 09:05:47;;;;;;;31.26;23.46;;;;;;;;;;5242304;28;20404;-77
2022/11/19 09:08:18;;;;;;;32.63;23.60;;;;;;;;;;5242296;28;20449;-75
2022/11/19 09:10:49;;;;;;;32.67;23.98;;;;;;;;;;5242147;28;20017;-77
2022/11/19 09:13:21;;;;;;;32.36;23.84;;;;;;;;;;5242734;28;20022;-77
2022/11/19 09:15:52;;;;;;;31.67;23.38;;;;;;;;;;5241968;28;20037;-77
2022/11/19 09:18:23;;;;;;;31.77;23.45;;;;;;;;;;5242892;28;20025;-77
2022/11/19 09:20:55;;;;;;;35.88;23.88;;;;;;;;;;5243111;28;20021;-76
2022/11/19 09:23:26;;;;;;;32.20;22.63;;;;;;;;;;5242809;28;20021;-76
2022/11/19 09:26:05;;;;;;;33.28;23.90;;;;;;;;;;5231645;28;20037;-75
2022/11/19 09:28:36;;;;;;;31.08;23.42;;;;;;;;;;5221935;28;20033;-76
2022/11/19 09:31:12;;;;;;;30.75;23.17;;;;;;;;;;5220142;28;20045;-76
2022/11/19 09:33:47;;;;;;;30.52;22.63;;;;;;;;;;5221475;28;20026;-76
2022/11/19 09:36:19;;;;;;;32.13;24.08;;;;;;;;;;5221895;28;20018;-76
2022/11/19 09:38:54;;;;;;;29.15;22.50;;;;;;;;;;5220424;28;20025;-76
2022/11/19 09:41:44;;;;;;;29.80;22.75;;;;;;;;;;5221399;28;20068;-76
2022/11/19 09:44:21;;;;;;;28.98;21.77;;;;;;;;;;5220815;28;20033;-76
2022/11/19 09:47:11;;;;;;;30.13;22.48;;;;;;;;;;5221508;28;20430;-76
2022/11/19 09:49:48;;;;;;;31.05;22.67;;;;;;;;;;5216654;28;20030;-76
2022/11/19 09:52:21;;;;;;;29.25;22.40;;;;;;;;;;5220197;28;20366;-76
2022/11/19 09:54:54;;;;;;;28.80;21.20;;;;;;;;;;5216950;28;20021;-76
2022/11/19 09:57:30;;;;;;;31.60;22.85;;;;;;;;;;5220664;28;20022;-76
2022/11/19 10:00:03;;;;;;;30.55;21.27;;;;;;;;;;5219920;28;20022;-76
2022/11/19 10:02:34;;;;;;;33.92;21.67;;;;;;;;;;5220831;28;20117;-76
2022/11/19 10:05:06;;;;;;;31.00;22.23;;;;;;;;;;5219950;28;20571;-76
2022/11/19 10:07:41;;;;;;;33.20;22.35;;;;;;;;;;5220552;28;20366;-76
2022/11/19 10:10:35;;;;;;;33.40;24.30;;;;;;;;;;5220766;28;20018;-77
2022/11/19 10:13:25;;;;;;;32.20;22.50;;;;;;;;;;5219847;28;20029;-76
2022/11/19 10:16:11;;;;;;;33.78;23.23;;;;;;;;;;5220722;28;20037;-76
2022/11/19 10:18:48;;;;;;;31.63;23.05;;;;;;;;;;5218887;28;20397;-75
2022/11/19 10:21:36;;;;;;;32.25;22.08;;;;;;;;;;5220995;28;20025;-74
2022/11/19 10:24:18;;;;;;;31.67;23.27;;;;;;;;;;5220631;28;20438;-76
2022/11/19 10:26:56;;;;;;;31.05;22.23;;;;;;;;;;5219517;28;20017;-76
2022/11/19 10:29:31;;;;;;;29.10;20.95;;;;;;;;;;5220272;28;20037;-75
2022/11/19 10:32:12;;;;;;;28.88;20.60;;;;;;;;;;5219955;28;20129;-76
2022/11/19 10:34:44;;;;;;;28.77;20.67;;;;;;;;;;5219141;28;20052;-76
2022/11/19 10:37:17;;;;;;;26.67;19.52;;;;;;;;;;5220365;28;20057;-76
2022/11/19 10:39:52;;;;;;;29.38;20.13;;;;;;;;;;5219181;28;20464;-76
2022/11/19 10:42:25;;;;;;;26.70;19.45;;;;;;;;;;5219825;28;20381;-75
2022/11/19 10:45:02;;;;;;;26.70;19.38;;;;;;;;;;5220152;28;20021;-75
2022/11/19 10:47:43;;;;;;;25.85;19.67;;;;;;;;;;5219301;28;20068;-75
2022/11/19 10:50:15;;;;;;;24.73;18.58;;;;;;;;;;5220221;28;20021;-78
2022/11/19 10:52:58;;;;;;;27.23;18.52;;;;;;;;;;5219273;28;20397;-76
2022/11/19 10:55:34;;;;;;;25.63;19.27;;;;;;;;;;5219017;28;20122;-76
2022/11/19 10:58:24;;;;;;;25.10;19.40;;;;;;;;;;5219839;28;20505;-76
2022/11/19 11:00:57;;;;;;;24.65;19.02;;;;;;;;;;5218446;28;20033;-76
2022/11/19 11:03:32;;;;;;;29.13;19.48;;;;;;;;;;5219928;28;20076;-76
2022/11/19 11:06:05;;;;;;;26.35;20.33;;;;;;;;;;5219711;28;20030;-75
2022/11/19 11:08:47;;;;;;;24.73;18.23;;;;;;;;;;5218884;28;20029;-75
2022/11/19 11:14:50;;;;;;;25.08;18.23;;;;;;;;;;5219910;28;20156;-77
2022/11/19 11:17:22;;;;;;;27.83;18.88;;;;;;;;;;5219253;28;20022;-77
2022/11/19 11:19:54;;;;;;;25.85;18.98;;;;;;;;;;5219600;28;20467;-76
2022/11/19 11:22:26;;;;;;;28.50;18.70;;;;;;;;;;5218122;28;20362;-76
2022/11/19 11:24:58;;;;;;;26.85;18.55;;;;;;;;;;5219432;28;20117;-76
2022/11/19 11:27:32;;;;;;;26.58;18.90;;;;;;;;;;5219304;28;20093;-76
2022/11/19 11:30:23;;;;;;;23.48;17.13;;;;;;;;;;5218690;28;20026;-76
2022/11/19 11:32:56;;;;;;;22.98;17.75;;;;;;;;;;5219018;28;20054;-76
2022/11/19 11:35:32;;;;;;;23.33;17.67;;;;;;;;;;5219423;28;20595;-77
2022/11/19 11:38:03;;;;;;;21.77;17.20;;;;;;;;;;5219026;28;20025;-76
2022/11/19 11:40:35;;;;;;;23.73;16.95;;;;;;;;;;5219135;28;20025;-76
2022/11/19 11:43:14;;;;;;;20.85;15.73;;;;;;;;;;5218473;28;20021;-75
2022/11/19 11:45:45;;;;;;;23.33;17.33;;;;;;;;;;5218764;28;20018;-76
2022/11/19 11:48:18;;;;;;;20.98;16.75;;;;;;;;;;5219462;28;20080;-76
2022/11/19 11:50:49;;;;;;;20.70;16.60;;;;;;;;;;5218076;28;20354;-76
2022/11/19 11:53:28;;;;;;;21.25;16.73;;;;;;;;;;5219195;28;20041;-76
2022/11/19 11:56:01;;;;;;;18.30;15.30;;;;;;;;;;5219277;28;20418;-77
2022/11/19 11:58:33;;;;;;;18.63;15.35;;;;;;;;;;5218344;28;20044;-76
2022/11/19 12:01:12;;;;;;;17.60;14.27;;;;;;;;;;5218911;28;20022;-76
2022/11/19 12:03:53;;;;;;;17.55;14.35;;;;;;;;;;5218820;28;20088;-76
2022/11/19 12:06:27;;;;;;;17.65;14.18;;;;;;;;;;5218069;28;20047;-77
2022/11/19 12:09:05;;;;;;;17.23;14.15;;;;;;;;;;5218623;28;20056;-76
2022/11/19 12:11:56;;;;;;;18.33;13.40;;;;;;;;;;5217901;28;20101;-76
2022/11/19 12:14:28;;;;;;;17.40;13.85;;;;;;;;;;5218399;28;20026;-76
2022/11/19 12:17:18;;;;;;;16.86;13.30;;;;;;;;;;5218978;28;20030;-76
2022/11/19 12:19:56;;;;;;;21.23;14.32;;;;;;;;;;5217563;28;20377;-76
2022/11/19 12:22:45;;;;;;;17.52;13.40;;;;;;;;;;5218576;28;20112;-76
2022/11/19 12:25:24;;;;;;;16.65;12.93;;;;;;;;;;5218252;28;20033;-76
2022/11/19 12:28:14;;;;;;;16.98;13.20;;;;;;;;;;5218808;28;20014;-77
2022/11/19 12:30:53;;;;;;;19.23;14.35;;;;;;;;;;5218104;28;20038;-76
2022/11/19 12:33:30;;;;;;;15.85;13.43;;;;;;;;;;5218241;28;20022;-76
2022/11/19 12:36:01;;;;;;;15.07;12.70;;;;;;;;;;5222191;28;20057;-75
2022/11/19 12:39:05;;;;;;;14.94;12.34;;;;;;;;;;5222170;28;20485;-76
2022/11/19 12:41:55;;;;;;;15.57;12.68;;;;;;;;;;5167411;28;20033;-76
2022/11/19 12:44:41;;;;;;;15.43;12.30;;;;;;;;;;5222232;28;20109;-76
2022/11/19 12:47:24;;;;;;;16.17;13.43;;;;;;;;;;5221533;28;20056;-76
2022/11/19 12:50:01;;;;;;;15.45;13.20;;;;;;;;;;5222078;28;20117;-75
2022/11/19 12:52:51;;;;;;;18.02;13.18;;;;;;;;;;5222035;28;20029;-77
2022/11/19 12:55:25;;;;;;;16.08;12.23;;;;;;;;;;5221284;28;20026;-76
2022/11/19 12:58:08;;;;;;;13.55;12.07;;;;;;;;;;5222156;28;20032;-74
2022/11/19 13:00:45;;;;;;;19.13;11.93;;;;;;;;;;5220992;28;20597;-75
2022/11/19 13:03:25;;;;;;;17.80;12.65;;;;;;;;;;5222105;28;20058;-77
2022/11/19 13:05:59;;;;;;;17.02;13.88;;;;;;;;;;5221737;28;20112;-74
2022/11/19 13:08:35;;;;;;;15.90;12.10;;;;;;;;;;5221032;28;20014;-73
2022/11/19 13:11:12;;;;;;;13.98;12.23;;;;;;;;;;5221582;28;20521;-75
2022/11/19 13:14:10;;;;;;;14.48;12.15;;;;;;;;;;5221399;28;20022;-75
2022/11/19 13:16:41;;;;;;;14.35;11.35;;;;;;;;;;5215581;28;20107;-74
2022/11/19 13:19:26;;;;;;;13.82;10.80;;;;;;;;;;5221793;28;20057;-74
2022/11/19 13:22:01;;;;;;;15.07;10.88;;;;;;;;;;5220787;28;20052;-74
2022/11/19 13:24:35;;;;;;;15.30;11.82;;;;;;;;;;5221409;28;20018;-73
2022/11/19 13:27:10;;;;;;;14.88;11.90;;;;;;;;;;5221015;28;20037;-73
2022/11/19 13:29:46;;;;;;;15.43;12.23;;;;;;;;;;5219849;28;20029;-73
2022/11/19 13:32:24;;;;;;;14.27;12.07;;;;;;;;;;5221364;28;20132;-74
2022/11/19 13:35:02;;;;;;;17.95;12.57;;;;;;;;;;5221387;28;20014;-75
2022/11/19 13:37:42;;;;;;;18.27;13.05;;;;;;;;;;5220498;28;20049;-74
2022/11/19 13:40:16;;;;;;;17.75;13.07;;;;;;;;;;5221857;28;20025;-74
2022/11/19 13:45:39;;;;;;;14.05;11.73;;;;;;;;;;5221272;28;20030;-75
2022/11/19 13:48:26;;;;;;;14.27;12.02;;;;;;;;;;5221264;28;20022;-74
2022/11/19 13:50:59;;;;;;;14.52;11.73;;;;;;;;;;5220087;28;20021;-74
2022/11/19 13:53:30;;;;;;;15.38;11.90;;;;;;;;;;5220868;28;20092;-73
2022/11/19 13:56:02;;;;;;;15.30;12.06;;;;;;;;;;5220750;28;20034;-75
2022/11/19 13:58:39;;;;;;;23.58;13.38;;;;;;;;;;5220337;28;20060;-75
2022/11/19 14:01:29;;;;;;;13.75;10.63;;;;;;;;;;5221430;28;20462;-75
2022/11/19 14:04:22;;;;;;;13.48;10.88;;;;;;;;;;5219986;28;20014;-73
2022/11/19 14:07:07;;;;;;;14.02;11.18;;;;;;;;;;5220641;28;20453;-75
2022/11/19 14:10:04;;;;;;;13.63;10.40;;;;;;;;;;5220290;28;20118;-74
2022/11/19 14:12:44;;;;;;;13.98;11.48;;;;;;;;;;5215104;28;20073;-75
2022/11/19 14:27:16;;;;;;;13.25;11.82;;;;;;;;;;5219557;28;20030;-73
2022/11/19 14:29:47;;;;;;;13.95;11.52;;;;;;;;;;5219497;28;20030;-75
2022/11/19 14:32:26;;;;;;;14.10;11.18;;;;;;;;;;5219561;28;20519;-76
2022/11/19 14:35:00;;;;;;;12.70;10.48;;;;;;;;;;5220033;28;20093;-75
2022/11/19 14:37:36;;;;;;;12.80;10.95;;;;;;;;;;5220170;28;20540;-75
2022/11/19 14:40:13;;;;;;;13.60;10.73;;;;;;;;;;5219455;28;20120;-76
2022/11/19 14:46:01;;;;;;;12.45;9.95;;;;;;;;;;5219709;28;20030;-77
2022/11/19 14:48:39;;;;;;;11.40;10.00;;;;;;;;;;5220194;28;20068;-77
2022/11/19 14:51:11;;;;;;;10.65;9.55;;;;;;;;;;5220013;28;20080;-75
2022/11/19 14:53:56;;;;;;;11.43;9.35;;;;;;;;;;5218694;28;20073;-74
2022/11/19 14:56:28;;;;;;;10.93;9.80;;;;;;;;;;5219292;28;20064;-76
2022/11/19 14:59:08;;;;;;;10.80;9.32;;;;;;;;;;5219706;28;20425;-75
2022/11/19 15:01:55;;;;;;;10.85;9.32;;;;;;;;;;5218475;28;20130;-75
2022/11/19 15:04:32;;;;;;;10.30;9.00;;;;;;;;;;5219582;28;20017;-75
2022/11/19 15:07:13;;;;;;;10.35;8.73;;;;;;;;;;5218956;28;20026;-75
2022/11/19 15:09:50;;;;;;;11.48;9.70;;;;;;;;;;5219760;28;20441;-75
2022/11/19 15:12:32;;;;;;;10.32;9.00;;;;;;;;;;5219468;28;20037;-74
2022/11/19 15:15:32;;;;;;;10.63;9.07;;;;;;;;;;5218800;28;20538;-77
2022/11/19 15:18:16;;;;;;;10.55;9.10;;;;;;;;;;5198095;28;20555;-74
2022/11/19 15:20:56;;;;;;;10.68;9.57;;;;;;;;;;5219127;28;20097;-75
2022/11/19 15:23:35;;;;;;;11.52;10.32;;;;;;;;;;5219365;28;20105;-75
2022/11/19 15:26:07;;;;;;;12.48;10.50;;;;;;;;;;5219668;28;20079;-75
2022/11/19 15:28:56;;;;;;;10.85;9.75;;;;;;;;;;5218749;28;20042;-75
2022/11/19 15:31:34;;;;;;;11.30;9.10;;;;;;;;;;5219157;28;20126;-75
2022/11/19 15:34:20;;;;;;;10.85;8.95;;;;;;;;;;5219168;28;20104;-74
2022/11/19 15:36:57;;;;;;;10.27;8.70;;;;;;;;;;5218473;28;20025;-74
2022/11/19 15:39:46;;;;;;;10.63;9.40;;;;;;;;;;5219272;28;20024;-74
2022/11/19 15:42:20;;;;;;;10.48;9.38;;;;;;;;;;5218589;28;20022;-75